sensor_id;sensor_type;location;lat;lon;timestamp;P1;durP1;ratioP1;P2;durP2;ratioP2
20443;SDS011;10381;53.730;10.010;2023-05-20T00:02:22;4.65;;;4.22;;
20443;SDS011;10381;53.730;10.010;2023-05-20T00:06:22;6.87;;;4.73;;
20443;SDS011;10381;53.730;10.010;2023-05-20T00:10:22;8.43;;;4.30;;
20443;SDS011;10381;53.730;10.010;2023-05-20T00:14:23;4.60;;;4.20;;
20443;SDS011;10381;53.730;10.010;2023-05-20T00:18:23;5.78;;;4.47;;
20443;SDS011;10381;53.730;10.010;2023-05-20T00:22:23;6.90;;;4.57;;
20443;SDS011;10381;53.730;10.010;2023-05-20T00:26:24;7.23;;;5.53;;
20443;SDS011;10381;53.730;10.010;2023-05-20T00:30:25;7.57;;;5.60;;
20443;SDS011;10381;53.730;10.010;2023-05-20T00:34:25;8.23;;;5.43;;
20443;SDS011;10381;53.730;10.010;2023-05-20T00:38:25;7.13;;;6.47;;
20443;SDS011;10381;53.730;10.010;2023-05-20T00:42:26;7.03;;;6.47;;
20443;SDS011;10381;53.730;10.010;2023-05-20T00:46:27;7.70;;;6.95;;
20443;SDS011;10381;53.730;10.010;2023-05-20T00:50:28;8.65;;;7.82;;
20443;SDS011;10381;53.730;10.010;2023-05-20T00:54:28;14.02;;;8.40;;
20443;SDS011;10381;53.730;10.010;2023-05-20T00:58:29;9.80;;;8.82;;
20443;SDS011;10381;53.730;10.010;2023-05-20T01:02:30;10.10;;;9.00;;
20443;SDS011;10381;53.730;10.010;2023-05-20T01:06:30;8.48;;;7.78;;
20443;SDS011;10381;53.730;10.010;2023-05-20T01:10:32;8.93;;;7.97;;
20443;SDS011;10381;53.730;10.010;2023-05-20T01:14:48;11.00;;;8.20;;
20443;SDS011;10381;53.730;10.010;2023-05-20T01:18:50;9.02;;;8.23;;
20443;SDS011;10381;53.730;10.010;2023-05-20T01:22:55;8.52;;;7.82;;
20443;SDS011;10381;53.730;10.010;2023-05-20T01:26:55;8.10;;;7.40;;
20443;SDS011;10381;53.730;10.010;2023-05-20T01:30:57;9.00;;;8.18;;
20443;SDS011;10381;53.730;10.010;2023-05-20T01:35:00;8.40;;;7.57;;
20443;SDS011;10381;53.730;10.010;2023-05-20T01:39:02;8.48;;;7.55;;
20443;SDS011;10381;53.730;10.010;2023-05-20T01:43:04;9.05;;;8.13;;
20443;SDS011;10381;53.730;10.010;2023-05-20T01:47:05;11.98;;;7.13;;
20443;SDS011;10381;53.730;10.010;2023-05-20T01:51:06;8.73;;;7.93;;
20443;SDS011;10381;53.730;10.010;2023-05-20T01:55:06;8.77;;;7.57;;
20443;SDS011;10381;53.730;10.010;2023-05-20T01:59:07;7.95;;;7.25;;
20443;SDS011;10381;53.730;10.010;2023-05-20T02:03:07;8.32;;;7.30;;
20443;SDS011;10381;53.730;10.010;2023-05-20T02:07:07;10.03;;;7.47;;
20443;SDS011;10381;53.730;10.010;2023-05-20T02:11:07;7.93;;;7.20;;
20443;SDS011;10381;53.730;10.010;2023-05-20T02:15:08;9.00;;;7.70;;
20443;SDS011;10381;53.730;10.010;2023-05-20T02:19:08;9.93;;;7.47;;
20443;SDS011;10381;53.730;10.010;2023-05-20T02:23:11;7.35;;;6.75;;
20443;SDS011;10381;53.730;10.010;2023-05-20T02:27:11;9.10;;;6.90;;
20443;SDS011;10381;53.730;10.010;2023-05-20T02:31:12;7.78;;;6.80;;
20443;SDS011;10381;53.730;10.010;2023-05-20T02:35:12;7.15;;;6.55;;
20443;SDS011;10381;53.730;10.010;2023-05-20T02:39:12;7.95;;;7.25;;
20443;SDS011;10381;53.730;10.010;2023-05-20T02:43:13;9.30;;;7.53;;
20443;SDS011;10381;53.730;10.010;2023-05-20T02:47:13;7.00;;;6.30;;
20443;SDS011;10381;53.730;10.010;2023-05-20T02:51:13;7.70;;;6.90;;
20443;SDS011;10381;53.730;10.010;2023-05-20T02:55:13;7.20;;;6.50;;
20443;SDS011;10381;53.730;10.010;2023-05-20T02:59:14;9.50;;;6.97;;
20443;SDS011;10381;53.730;10.010;2023-05-20T03:03:15;13.57;;;7.38;;
20443;SDS011;10381;53.730;10.010;2023-05-20T03:07:15;8.03;;;7.03;;
20443;SDS011;10381;53.730;10.010;2023-05-20T03:11:18;8.25;;;7.13;;
20443;SDS011;10381;53.730;10.010;2023-05-20T03:15:18;8.00;;;6.63;;
20443;SDS011;10381;53.730;10.010;2023-05-20T03:19:18;7.33;;;6.70;;
20443;SDS011;10381;53.730;10.010;2023-05-20T03:23:19;5.93;;;5.47;;
20443;SDS011;10381;53.730;10.010;2023-05-20T03:27:20;7.20;;;6.50;;
20443;SDS011;10381;53.730;10.010;2023-05-20T03:31:20;16.07;;;6.63;;
20443;SDS011;10381;53.730;10.010;2023-05-20T03:35:20;7.27;;;6.57;;
20443;SDS011;10381;53.730;10.010;2023-05-20T03:39:21;7.77;;;7.00;;
20443;SDS011;10381;53.730;10.010;2023-05-20T03:43:21;8.37;;;7.07;;
20443;SDS011;10381;53.730;10.010;2023-05-20T03:47:21;9.43;;;7.30;;
20443;SDS011;10381;53.730;10.010;2023-05-20T03:51:21;11.05;;;7.22;;
20443;SDS011;10381;53.730;10.010;2023-05-20T03:55:22;7.83;;;7.03;;
20443;SDS011;10381;53.730;10.010;2023-05-20T03:59:22;7.93;;;7.20;;
20443;SDS011;10381;53.730;10.010;2023-05-20T04:03:22;8.45;;;7.65;;
20443;SDS011;10381;53.730;10.010;2023-05-20T04:07:24;24.73;;;7.50;;
20443;SDS011;10381;53.730;10.010;2023-05-20T04:11:24;7.80;;;7.20;;
20443;SDS011;10381;53.730;10.010;2023-05-20T04:15:25;7.90;;;6.97;;
20443;SDS011;10381;53.730;10.010;2023-05-20T04:19:25;7.85;;;7.07;;
20443;SDS011;10381;53.730;10.010;2023-05-20T04:23:27;9.93;;;9.15;;
20443;SDS011;10381;53.730;10.010;2023-05-20T04:27:27;13.50;;;11.87;;
20443;SDS011;10381;53.730;10.010;2023-05-20T04:31:29;14.57;;;13.38;;
20443;SDS011;10381;53.730;10.010;2023-05-20T04:35:29;13.77;;;12.35;;
20443;SDS011;10381;53.730;10.010;2023-05-20T04:39:30;13.10;;;11.82;;
20443;SDS011;10381;53.730;10.010;2023-05-20T04:43:30;13.33;;;12.17;;
20443;SDS011;10381;53.730;10.010;2023-05-20T04:47:30;13.43;;;12.23;;
20443;SDS011;10381;53.730;10.010;2023-05-20T04:51:31;14.45;;;13.25;;
20443;SDS011;10381;53.730;10.010;2023-05-20T04:55:31;14.20;;;12.77;;
20443;SDS011;10381;53.730;10.010;2023-05-20T04:59:31;12.90;;;11.87;;
20443;SDS011;10381;53.730;10.010;2023-05-20T05:03:31;13.97;;;12.83;;
20443;SDS011;10381;53.730;10.010;2023-05-20T05:07:32;14.23;;;12.80;;
20443;SDS011;10381;53.730;10.010;2023-05-20T05:11:32;14.48;;;13.10;;
20443;SDS011;10381;53.730;10.010;2023-05-20T05:15:32;14.35;;;12.88;;
20443;SDS011;10381;53.730;10.010;2023-05-20T05:19:33;15.52;;;14.02;;
20443;SDS011;10381;53.730;10.010;2023-05-20T05:23:33;19.30;;;13.70;;
20443;SDS011;10381;53.730;10.010;2023-05-20T05:27:33;15.17;;;13.90;;
20443;SDS011;10381;53.730;10.010;2023-05-20T05:31:34;19.67;;;13.93;;
20443;SDS011;10381;53.730;10.010;2023-05-20T05:35:35;14.73;;;13.47;;
20443;SDS011;10381;53.730;10.010;2023-05-20T05:39:35;19.27;;;14.10;;
20443;SDS011;10381;53.730;10.010;2023-05-20T05:43:36;15.63;;;14.13;;
20443;SDS011;10381;53.730;10.010;2023-05-20T05:47:36;15.45;;;13.80;;
20443;SDS011;10381;53.730;10.010;2023-05-20T05:51:37;14.53;;;12.93;;
20443;SDS011;10381;53.730;10.010;2023-05-20T05:55:37;13.83;;;12.73;;
20443;SDS011;10381;53.730;10.010;2023-05-20T05:59:37;15.80;;;14.30;;
20443;SDS011;10381;53.730;10.010;2023-05-20T06:03:38;16.92;;;14.57;;
20443;SDS011;10381;53.730;10.010;2023-05-20T06:07:38;15.63;;;14.32;;
20443;SDS011;10381;53.730;10.010;2023-05-20T06:11:38;13.83;;;12.70;;
20443;SDS011;10381;53.730;10.010;2023-05-20T06:15:41;17.08;;;13.55;;
20443;SDS011;10381;53.730;10.010;2023-05-20T06:19:41;15.83;;;14.20;;
20443;SDS011;10381;53.730;10.010;2023-05-20T06:23:41;14.40;;;12.90;;
20443;SDS011;10381;53.730;10.010;2023-05-20T06:27:42;15.10;;;13.80;;
20443;SDS011;10381;53.730;10.010;2023-05-20T06:31:42;17.83;;;14.83;;
20443;SDS011;10381;53.730;10.010;2023-05-20T06:35:42;15.20;;;14.00;;
20443;SDS011;10381;53.730;10.010;2023-05-20T06:39:42;16.00;;;14.40;;
20443;SDS011;10381;53.730;10.010;2023-05-20T06:43:43;17.33;;;15.53;;
20443;SDS011;10381;53.730;10.010;2023-05-20T06:47:43;17.20;;;14.13;;
20443;SDS011;10381;53.730;10.010;2023-05-20T06:51:44;21.33;;;13.48;;
20443;SDS011;10381;53.730;10.010;2023-05-20T06:55:44;15.47;;;13.97;;
20443;SDS011;10381;53.730;10.010;2023-05-20T06:59:44;15.23;;;13.82;;
20443;SDS011;10381;53.730;10.010;2023-05-20T07:03:45;14.55;;;13.35;;
20443;SDS011;10381;53.730;10.010;2023-05-20T07:07:45;14.77;;;13.47;;
20443;SDS011;10381;53.730;10.010;2023-05-20T07:11:45;13.83;;;12.80;;
20443;SDS011;10381;53.730;10.010;2023-05-20T07:15:46;16.23;;;13.97;;
20443;SDS011;10381;53.730;10.010;2023-05-20T07:19:46;13.82;;;12.68;;
20443;SDS011;10381;53.730;10.010;2023-05-20T07:23:47;13.70;;;12.57;;
20443;SDS011;10381;53.730;10.010;2023-05-20T07:27:47;14.13;;;12.87;;
20443;SDS011;10381;53.730;10.010;2023-05-20T07:31:47;13.87;;;12.67;;
20443;SDS011;10381;53.730;10.010;2023-05-20T07:35:47;14.70;;;13.20;;
20443;SDS011;10381;53.730;10.010;2023-05-20T07:39:48;14.10;;;12.77;;
20443;SDS011;10381;53.730;10.010;2023-05-20T07:43:48;15.33;;;12.73;;
20443;SDS011;10381;53.730;10.010;2023-05-20T07:47:48;17.27;;;13.82;;
20443;SDS011;10381;53.730;10.010;2023-05-20T07:51:49;14.50;;;13.20;;
20443;SDS011;10381;53.730;10.010;2023-05-20T07:55:49;16.83;;;13.33;;
20443;SDS011;10381;53.730;10.010;2023-05-20T07:59:49;14.52;;;12.25;;
20443;SDS011;10381;53.730;10.010;2023-05-20T08:03:50;14.23;;;12.93;;
20443;SDS011;10381;53.730;10.010;2023-05-20T08:07:50;13.37;;;12.17;;
20443;SDS011;10381;53.730;10.010;2023-05-20T08:11:50;13.73;;;12.15;;
20443;SDS011;10381;53.730;10.010;2023-05-20T08:15:53;14.33;;;13.03;;
20443;SDS011;10381;53.730;10.010;2023-05-20T08:19:53;17.38;;;12.27;;
20443;SDS011;10381;53.730;10.010;2023-05-20T08:23:54;12.23;;;11.03;;
20443;SDS011;10381;53.730;10.010;2023-05-20T08:27:54;12.47;;;11.37;;
20443;SDS011;10381;53.730;10.010;2023-05-20T08:31:54;13.53;;;12.33;;
20443;SDS011;10381;53.730;10.010;2023-05-20T08:35:55;13.57;;;12.38;;
20443;SDS011;10381;53.730;10.010;2023-05-20T08:39:55;13.43;;;12.03;;
20443;SDS011;10381;53.730;10.010;2023-05-20T08:43:55;11.93;;;10.77;;
20443;SDS011;10381;53.730;10.010;2023-05-20T08:47:58;14.38;;;11.52;;
20443;SDS011;10381;53.730;10.010;2023-05-20T08:52:00;12.43;;;11.35;;
20443;SDS011;10381;53.730;10.010;2023-05-20T08:56:00;11.13;;;10.13;;
20443;SDS011;10381;53.730;10.010;2023-05-20T09:00:04;8.70;;;7.90;;
20443;SDS011;10381;53.730;10.010;2023-05-20T09:04:12;11.68;;;4.95;;
20443;SDS011;10381;53.730;10.010;2023-05-20T09:08:12;7.80;;;4.55;;
20443;SDS011;10381;53.730;10.010;2023-05-20T09:12:13;6.22;;;3.67;;
20443;SDS011;10381;53.730;10.010;2023-05-20T09:16:13;3.50;;;3.20;;
20443;SDS011;10381;53.730;10.010;2023-05-20T09:20:13;12.40;;;3.70;;
20443;SDS011;10381;53.730;10.010;2023-05-20T09:24:19;5.13;;;3.53;;
20443;SDS011;10381;53.730;10.010;2023-05-20T09:28:22;7.53;;;3.28;;
20443;SDS011;10381;53.730;10.010;2023-05-20T09:32:24;3.58;;;3.28;;
20443;SDS011;10381;53.730;10.010;2023-05-20T09:36:27;3.67;;;3.38;;
20443;SDS011;10381;53.730;10.010;2023-05-20T09:40:28;4.70;;;3.58;;
20443;SDS011;10381;53.730;10.010;2023-05-20T09:44:29;5.13;;;3.72;;
20443;SDS011;10381;53.730;10.010;2023-05-20T09:48:30;4.80;;;3.70;;
20443;SDS011;10381;53.730;10.010;2023-05-20T09:52:31;9.50;;;3.63;;
20443;SDS011;10381;53.730;10.010;2023-05-20T09:56:33;5.63;;;3.55;;
20443;SDS011;10381;53.730;10.010;2023-05-20T10:00:34;4.20;;;3.80;;
20443;SDS011;10381;53.730;10.010;2023-05-20T10:04:35;8.23;;;3.83;;
20443;SDS011;10381;53.730;10.010;2023-05-20T10:08:50;4.40;;;3.53;;
20443;SDS011;10381;53.730;10.010;2023-05-20T10:13:13;3.67;;;3.30;;
20443;SDS011;10381;53.730;10.010;2023-05-20T10:17:51;5.03;;;3.72;;
20443;SDS011;10381;53.730;10.010;2023-05-20T10:22:13;3.40;;;3.10;;
20443;SDS011;10381;53.730;10.010;2023-05-20T10:26:13;4.38;;;3.63;;
20443;SDS011;10381;53.730;10.010;2023-05-20T10:30:14;5.17;;;3.97;;
20443;SDS011;10381;53.730;10.010;2023-05-20T10:34:16;5.05;;;3.80;;
20443;SDS011;10381;53.730;10.010;2023-05-20T10:38:18;9.75;;;4.63;;
20443;SDS011;10381;53.730;10.010;2023-05-20T10:42:26;10.40;;;4.10;;
20443;SDS011;10381;53.730;10.010;2023-05-20T10:46:28;6.38;;;4.10;;
20443;SDS011;10381;53.730;10.010;2023-05-20T10:50:33;7.35;;;4.13;;
20443;SDS011;10381;53.730;10.010;2023-05-20T10:54:35;6.03;;;4.13;;
20443;SDS011;10381;53.730;10.010;2023-05-20T10:58:37;5.57;;;3.30;;
20443;SDS011;10381;53.730;10.010;2023-05-20T11:02:38;4.75;;;3.80;;
20443;SDS011;10381;53.730;10.010;2023-05-20T11:06:38;5.13;;;3.85;;
20443;SDS011;10381;53.730;10.010;2023-05-20T11:10:49;5.40;;;3.70;;
20443;SDS011;10381;53.730;10.010;2023-05-20T11:14:49;4.18;;;3.60;;
20443;SDS011;10381;53.730;10.010;2023-05-20T11:18:50;7.55;;;3.85;;
20443;SDS011;10381;53.730;10.010;2023-05-20T11:22:51;14.73;;;3.70;;
20443;SDS011;10381;53.730;10.010;2023-05-20T11:26:55;4.90;;;3.40;;
20443;SDS011;10381;53.730;10.010;2023-05-20T11:30:56;4.90;;;3.72;;
20443;SDS011;10381;53.730;10.010;2023-05-20T11:34:58;4.25;;;3.35;;
20443;SDS011;10381;53.730;10.010;2023-05-20T11:38:58;4.50;;;3.77;;
20443;SDS011;10381;53.730;10.010;2023-05-20T11:43:00;4.13;;;3.72;;
20443;SDS011;10381;53.730;10.010;2023-05-20T11:47:02;3.97;;;3.40;;
20443;SDS011;10381;53.730;10.010;2023-05-20T11:51:02;4.78;;;3.90;;
20443;SDS011;10381;53.730;10.010;2023-05-20T11:55:03;6.43;;;3.70;;
20443;SDS011;10381;53.730;10.010;2023-05-20T11:59:10;4.40;;;3.95;;
20443;SDS011;10381;53.730;10.010;2023-05-20T12:03:10;7.45;;;3.78;;
20443;SDS011;10381;53.730;10.010;2023-05-20T12:07:10;6.37;;;3.60;;
20443;SDS011;10381;53.730;10.010;2023-05-20T12:11:10;9.40;;;3.87;;
20443;SDS011;10381;53.730;10.010;2023-05-20T12:15:11;4.68;;;3.50;;
20443;SDS011;10381;53.730;10.010;2023-05-20T12:19:11;6.95;;;3.38;;
20443;SDS011;10381;53.730;10.010;2023-05-20T12:23:12;4.77;;;4.27;;
20443;SDS011;10381;53.730;10.010;2023-05-20T12:27:12;5.60;;;3.87;;
20443;SDS011;10381;53.730;10.010;2023-05-20T12:31:12;3.83;;;3.53;;
20443;SDS011;10381;53.730;10.010;2023-05-20T12:35:12;4.75;;;4.30;;
20443;SDS011;10381;53.730;10.010;2023-05-20T12:39:13;7.10;;;4.57;;
20443;SDS011;10381;53.730;10.010;2023-05-20T12:43:16;6.97;;;3.95;;
20443;SDS011;10381;53.730;10.010;2023-05-20T12:47:16;5.63;;;3.90;;
20443;SDS011;10381;53.730;10.010;2023-05-20T12:51:17;5.15;;;4.03;;
20443;SDS011;10381;53.730;10.010;2023-05-20T12:55:19;4.47;;;4.07;;
20443;SDS011;10381;53.730;10.010;2023-05-20T12:59:19;6.63;;;4.90;;
20443;SDS011;10381;53.730;10.010;2023-05-20T13:03:20;5.68;;;4.30;;
20443;SDS011;10381;53.730;10.010;2023-05-20T13:07:20;5.23;;;4.07;;
20443;SDS011;10381;53.730;10.010;2023-05-20T13:11:20;4.57;;;4.13;;
20443;SDS011;10381;53.730;10.010;2023-05-20T13:15:20;6.90;;;4.37;;
20443;SDS011;10381;53.730;10.010;2023-05-20T13:19:21;5.73;;;4.83;;
20443;SDS011;10381;53.730;10.010;2023-05-20T13:23:22;9.07;;;4.82;;
20443;SDS011;10381;53.730;10.010;2023-05-20T13:27:22;4.20;;;3.90;;
20443;SDS011;10381;53.730;10.010;2023-05-20T13:31:22;4.50;;;4.10;;
20443;SDS011;10381;53.730;10.010;2023-05-20T13:35:23;4.38;;;3.97;;
20443;SDS011;10381;53.730;10.010;2023-05-20T13:39:23;5.57;;;4.30;;
20443;SDS011;10381;53.730;10.010;2023-05-20T13:43:24;4.82;;;4.00;;
20443;SDS011;10381;53.730;10.010;2023-05-20T13:47:25;9.95;;;4.63;;
20443;SDS011;10381;53.730;10.010;2023-05-20T13:51:26;5.90;;;4.87;;
20443;SDS011;10381;53.730;10.010;2023-05-20T13:55:26;7.40;;;4.77;;
20443;SDS011;10381;53.730;10.010;2023-05-20T13:59:27;9.77;;;4.53;;
20443;SDS011;10381;53.730;10.010;2023-05-20T14:03:27;4.45;;;3.92;;
20443;SDS011;10381;53.730;10.010;2023-05-20T14:07:28;7.72;;;4.28;;
20443;SDS011;10381;53.730;10.010;2023-05-20T14:11:28;6.57;;;4.38;;
20443;SDS011;10381;53.730;10.010;2023-05-20T14:15:29;6.70;;;4.10;;
20443;SDS011;10381;53.730;10.010;2023-05-20T14:19:29;5.60;;;4.28;;
20443;SDS011;10381;53.730;10.010;2023-05-20T14:23:29;5.05;;;4.50;;
20443;SDS011;10381;53.730;10.010;2023-05-20T14:27:30;5.67;;;4.93;;
20443;SDS011;10381;53.730;10.010;2023-05-20T14:31:30;7.47;;;5.25;;
20443;SDS011;10381;53.730;10.010;2023-05-20T14:35:30;5.33;;;4.70;;
20443;SDS011;10381;53.730;10.010;2023-05-20T14:39:31;9.63;;;4.50;;
20443;SDS011;10381;53.730;10.010;2023-05-20T14:43:31;6.88;;;4.35;;
20443;SDS011;10381;53.730;10.010;2023-05-20T14:47:32;4.82;;;4.03;;
20443;SDS011;10381;53.730;10.010;2023-05-20T14:51:32;5.82;;;4.55;;
20443;SDS011;10381;53.730;10.010;2023-05-20T14:55:32;8.80;;;4.70;;
20443;SDS011;10381;53.730;10.010;2023-05-20T14:59:33;4.87;;;4.30;;
20443;SDS011;10381;53.730;10.010;2023-05-20T15:03:33;4.67;;;3.73;;
20443;SDS011;10381;53.730;10.010;2023-05-20T15:07:33;5.73;;;3.70;;
20443;SDS011;10381;53.730;10.010;2023-05-20T15:11:33;7.13;;;3.97;;
20443;SDS011;10381;53.730;10.010;2023-05-20T15:15:34;5.30;;;4.00;;
20443;SDS011;10381;53.730;10.010;2023-05-20T15:19:34;4.10;;;3.75;;
20443;SDS011;10381;53.730;10.010;2023-05-20T15:23:35;17.70;;;4.47;;
20443;SDS011;10381;53.730;10.010;2023-05-20T15:27:36;13.70;;;4.23;;
20443;SDS011;10381;53.730;10.010;2023-05-20T15:31:36;8.53;;;3.70;;
20443;SDS011;10381;53.730;10.010;2023-05-20T15:35:36;5.50;;;3.73;;
20443;SDS011;10381;53.730;10.010;2023-05-20T15:39:37;4.50;;;3.30;;
20443;SDS011;10381;53.730;10.010;2023-05-20T15:43:37;4.32;;;3.50;;
20443;SDS011;10381;53.730;10.010;2023-05-20T15:47:38;10.40;;;3.80;;
20443;SDS011;10381;53.730;10.010;2023-05-20T15:51:38;8.30;;;4.63;;
20443;SDS011;10381;53.730;10.010;2023-05-20T15:55:38;8.37;;;4.17;;
20443;SDS011;10381;53.730;10.010;2023-05-20T15:59:38;4.10;;;3.77;;
20443;SDS011;10381;53.730;10.010;2023-05-20T16:03:39;7.00;;;3.73;;
20443;SDS011;10381;53.730;10.010;2023-05-20T16:07:40;6.57;;;3.97;;
20443;SDS011;10381;53.730;10.010;2023-05-20T16:11:41;3.92;;;3.53;;
20443;SDS011;10381;53.730;10.010;2023-05-20T16:15:41;4.67;;;3.70;;
20443;SDS011;10381;53.730;10.010;2023-05-20T16:19:41;6.85;;;4.38;;
20443;SDS011;10381;53.730;10.010;2023-05-20T16:23:42;5.00;;;4.20;;
20443;SDS011;10381;53.730;10.010;2023-05-20T16:27:42;4.27;;;3.87;;
20443;SDS011;10381;53.730;10.010;2023-05-20T16:31:42;4.67;;;4.23;;
20443;SDS011;10381;53.730;10.010;2023-05-20T16:35:45;4.75;;;4.22;;
20443;SDS011;10381;53.730;10.010;2023-05-20T16:39:45;4.20;;;3.70;;
20443;SDS011;10381;53.730;10.010;2023-05-20T16:43:45;7.23;;;4.47;;
20443;SDS011;10381;53.730;10.010;2023-05-20T16:47:46;5.03;;;4.03;;
20443;SDS011;10381;53.730;10.010;2023-05-20T16:51:46;7.63;;;4.43;;
20443;SDS011;10381;53.730;10.010;2023-05-20T16:55:46;7.93;;;5.00;;
20443;SDS011;10381;53.730;10.010;2023-05-20T16:59:46;5.83;;;5.07;;
20443;SDS011;10381;53.730;10.010;2023-05-20T17:03:47;6.60;;;5.15;;
20443;SDS011;10381;53.730;10.010;2023-05-20T17:07:47;5.50;;;4.82;;
20443;SDS011;10381;53.730;10.010;2023-05-20T17:11:48;6.72;;;5.40;;
20443;SDS011;10381;53.730;10.010;2023-05-20T17:15:49;7.75;;;5.50;;
20443;SDS011;10381;53.730;10.010;2023-05-20T17:19:50;6.60;;;5.07;;
20443;SDS011;10381;53.730;10.010;2023-05-20T17:23:50;6.38;;;5.13;;
20443;SDS011;10381;53.730;10.010;2023-05-20T17:27:50;6.47;;;5.17;;
20443;SDS011;10381;53.730;10.010;2023-05-20T17:31:51;7.37;;;5.13;;
20443;SDS011;10381;53.730;10.010;2023-05-20T17:35:51;5.07;;;4.57;;
20443;SDS011;10381;53.730;10.010;2023-05-20T17:39:51;5.50;;;4.67;;
20443;SDS011;10381;53.730;10.010;2023-05-20T17:43:51;6.73;;;5.67;;
20443;SDS011;10381;53.730;10.010;2023-05-20T17:47:52;14.20;;;5.17;;
20443;SDS011;10381;53.730;10.010;2023-05-20T17:51:52;5.43;;;5.00;;
20443;SDS011;10381;53.730;10.010;2023-05-20T17:55:52;7.73;;;5.47;;
20443;SDS011;10381;53.730;10.010;2023-05-20T17:59:52;9.27;;;4.93;;
20443;SDS011;10381;53.730;10.010;2023-05-20T18:03:54;7.55;;;5.50;;
20443;SDS011;10381;53.730;10.010;2023-05-20T18:07:54;7.82;;;5.28;;
20443;SDS011;10381;53.730;10.010;2023-05-20T18:11:54;6.50;;;5.40;;
20443;SDS011;10381;53.730;10.010;2023-05-20T18:15:55;7.63;;;5.90;;
20443;SDS011;10381;53.730;10.010;2023-05-20T18:19:55;9.97;;;5.70;;
20443;SDS011;10381;53.730;10.010;2023-05-20T18:23:56;5.70;;;5.20;;
20443;SDS011;10381;53.730;10.010;2023-05-20T18:27:56;7.82;;;5.72;;
20443;SDS011;10381;53.730;10.010;2023-05-20T18:31:56;7.47;;;5.50;;
20443;SDS011;10381;53.730;10.010;2023-05-20T18:35:57;7.03;;;5.07;;
20443;SDS011;10381;53.730;10.010;2023-05-20T18:39:57;5.72;;;5.15;;
20443;SDS011;10381;53.730;10.010;2023-05-20T18:43:58;7.57;;;5.70;;
20443;SDS011;10381;53.730;10.010;2023-05-20T18:47:58;9.40;;;6.53;;
20443;SDS011;10381;53.730;10.010;2023-05-20T18:51:58;7.93;;;6.28;;
20443;SDS011;10381;53.730;10.010;2023-05-20T18:55:59;12.85;;;5.97;;
20443;SDS011;10381;53.730;10.010;2023-05-20T19:00:02;7.38;;;5.88;;
20443;SDS011;10381;53.730;10.010;2023-05-20T19:04:06;12.20;;;7.43;;
20443;SDS011;10381;53.730;10.010;2023-05-20T19:08:06;11.40;;;8.00;;
20443;SDS011;10381;53.730;10.010;2023-05-20T19:12:08;9.73;;;7.57;;
20443;SDS011;10381;53.730;10.010;2023-05-20T19:16:08;9.63;;;7.80;;
20443;SDS011;10381;53.730;10.010;2023-05-20T19:20:09;9.30;;;8.15;;
20443;SDS011;10381;53.730;10.010;2023-05-20T19:24:11;10.68;;;9.02;;
20443;SDS011;10381;53.730;10.010;2023-05-20T19:28:11;9.65;;;8.73;;
20443;SDS011;10381;53.730;10.010;2023-05-20T19:32:12;13.07;;;9.20;;
20443;SDS011;10381;53.730;10.010;2023-05-20T19:36:12;10.80;;;9.63;;
20443;SDS011;10381;53.730;10.010;2023-05-20T19:40:12;13.07;;;9.98;;
20443;SDS011;10381;53.730;10.010;2023-05-20T19:44:13;11.65;;;9.70;;
20443;SDS011;10381;53.730;10.010;2023-05-20T19:48:13;11.20;;;10.25;;
20443;SDS011;10381;53.730;10.010;2023-05-20T19:52:13;13.13;;;10.63;;
20443;SDS011;10381;53.730;10.010;2023-05-20T19:56:14;15.32;;;10.80;;
20443;SDS011;10381;53.730;10.010;2023-05-20T20:00:18;16.92;;;11.75;;
20443;SDS011;10381;53.730;10.010;2023-05-20T20:04:20;12.50;;;10.50;;
20443;SDS011;10381;53.730;10.010;2023-05-20T20:08:20;12.27;;;11.03;;
20443;SDS011;10381;53.730;10.010;2023-05-20T20:12:20;12.23;;;11.00;;
20443;SDS011;10381;53.730;10.010;2023-05-20T20:16:21;13.98;;;11.98;;
20443;SDS011;10381;53.730;10.010;2023-05-20T20:20:21;15.25;;;11.18;;
20443;SDS011;10381;53.730;10.010;2023-05-20T20:24:23;21.08;;;11.48;;
20443;SDS011;10381;53.730;10.010;2023-05-20T20:28:24;11.15;;;10.23;;
20443;SDS011;10381;53.730;10.010;2023-05-20T20:32:25;13.40;;;10.67;;
20443;SDS011;10381;53.730;10.010;2023-05-20T20:36:25;12.32;;;11.32;;
20443;SDS011;10381;53.730;10.010;2023-05-20T20:40:30;12.85;;;11.55;;
20443;SDS011;10381;53.730;10.010;2023-05-20T20:44:32;17.55;;;11.35;;
20443;SDS011;10381;53.730;10.010;2023-05-20T20:48:32;13.60;;;12.00;;
20443;SDS011;10381;53.730;10.010;2023-05-20T20:52:33;13.15;;;11.90;;
20443;SDS011;10381;53.730;10.010;2023-05-20T20:56:33;13.47;;;11.33;;
20443;SDS011;10381;53.730;10.010;2023-05-20T21:00:36;13.48;;;12.10;;
20443;SDS011;10381;53.730;10.010;2023-05-20T21:04:38;12.18;;;11.00;;
20443;SDS011;10381;53.730;10.010;2023-05-20T21:08:41;12.50;;;11.32;;
20443;SDS011;10381;53.730;10.010;2023-05-20T21:12:41;15.00;;;10.80;;
20443;SDS011;10381;53.730;10.010;2023-05-20T21:16:42;11.75;;;10.60;;
20443;SDS011;10381;53.730;10.010;2023-05-20T21:20:42;11.50;;;10.40;;
20443;SDS011;10381;53.730;10.010;2023-05-20T21:24:42;15.53;;;10.93;;
20443;SDS011;10381;53.730;10.010;2023-05-20T21:28:43;10.80;;;9.83;;
20443;SDS011;10381;53.730;10.010;2023-05-20T21:32:43;10.93;;;9.90;;
20443;SDS011;10381;53.730;10.010;2023-05-20T21:36:43;14.52;;;11.20;;
20443;SDS011;10381;53.730;10.010;2023-05-20T21:40:43;14.00;;;11.07;;
20443;SDS011;10381;53.730;10.010;2023-05-20T21:44:44;17.65;;;10.43;;
20443;SDS011;10381;53.730;10.010;2023-05-20T21:48:44;10.88;;;9.88;;
20443;SDS011;10381;53.730;10.010;2023-05-20T21:52:44;13.00;;;10.43;;
20443;SDS011;10381;53.730;10.010;2023-05-20T21:56:45;13.30;;;10.67;;
20443;SDS011;10381;53.730;10.010;2023-05-20T22:00:46;14.00;;;10.48;;
20443;SDS011;10381;53.730;10.010;2023-05-20T22:04:47;11.20;;;10.05;;
20443;SDS011;10381;53.730;10.010;2023-05-20T22:08:48;12.52;;;11.32;;
20443;SDS011;10381;53.730;10.010;2023-05-20T22:12:48;14.32;;;9.95;;
20443;SDS011;10381;53.730;10.010;2023-05-20T22:16:49;13.55;;;10.63;;
20443;SDS011;10381;53.730;10.010;2023-05-20T22:20:50;11.30;;;10.17;;
20443;SDS011;10381;53.730;10.010;2023-05-20T22:24:50;11.63;;;10.57;;
20443;SDS011;10381;53.730;10.010;2023-05-20T22:28:50;14.93;;;11.03;;
20443;SDS011;10381;53.730;10.010;2023-05-20T22:32:50;10.93;;;9.90;;
20443;SDS011;10381;53.730;10.010;2023-05-20T22:36:51;9.95;;;9.05;;
20443;SDS011;10381;53.730;10.010;2023-05-20T22:40:52;11.50;;;9.70;;
20443;SDS011;10381;53.730;10.010;2023-05-20T22:44:53;14.10;;;9.93;;
20443;SDS011;10381;53.730;10.010;2023-05-20T22:48:53;13.53;;;9.47;;
20443;SDS011;10381;53.730;10.010;2023-05-20T22:52:54;37.92;;;9.57;;
20443;SDS011;10381;53.730;10.010;2023-05-20T22:56:54;13.50;;;9.70;;
20443;SDS011;10381;53.730;10.010;2023-05-20T23:00:58;12.18;;;9.63;;
20443;SDS011;10381;53.730;10.010;2023-05-20T23:04:58;12.02;;;9.48;;
20443;SDS011;10381;53.730;10.010;2023-05-20T23:08:58;10.77;;;9.73;;
20443;SDS011;10381;53.730;10.010;2023-05-20T23:12:59;11.30;;;9.90;;
20443;SDS011;10381;53.730;10.010;2023-05-20T23:16:59;12.40;;;9.75;;
20443;SDS011;10381;53.730;10.010;2023-05-20T23:20:59;17.98;;;9.43;;
20443;SDS011;10381;53.730;10.010;2023-05-20T23:25:00;10.98;;;9.65;;
20443;SDS011;10381;53.730;10.010;2023-05-20T23:29:01;11.45;;;9.88;;
20443;SDS011;10381;53.730;10.010;2023-05-20T23:33:01;10.37;;;9.57;;
20443;SDS011;10381;53.730;10.010;2023-05-20T23:37:02;13.85;;;10.27;;